Time;durP1;ratioP1;P1;durP2;ratioP2;P2;SDS_P1;SDS_P2;PMS_P1;PMS_P2;Temp;Humidity;BMP_temperature;BMP_pressure;BME280_temperature;BME280_humidity;BME280_pressure;Samples;Min_cycle;Max_cycle;Signal;HPM_P1;HPM_P2
2023/07/12 00:00:58;;;;;;;;;;;;;;;;;;10035097;28;19923;-68
2023/07/12 00:05:54;;;;;;;;;;;;;;;;;;10037728;28;19930;-68
2023/07/12 00:10:51;;;;;;;;;;;;;;;;;;10037707;28;19973;-70
2023/07/12 00:15:49;;;;;;;;;;;;;;;;;;10041444;28;19922;-69
2023/07/12 00:20:46;;;;;;;;;;;;;;;;;;10043143;28;20017;-69
2023/07/12 00:25:44;;;;;;;;;;;;;;;;;;10035435;28;19937;-68
2023/07/12 00:30:44;;;;;;;;;;;;;;;;;;10039755;28;19923;-68
2023/07/12 00:35:42;;;;;;;;;;;;;;;;;;10038930;28;19933;-69
2023/07/12 00:40:39;;;;;;;;;;;;;;;;;;10027025;28;20436;-69
2023/07/12 00:45:41;;;;;;;;;;;;;;;;;;10040702;28;19922;-69
2023/07/12 00:50:38;;;;;;;;;;;;;;;;;;10031944;28;19973;-70
2023/07/12 00:55:35;;;;;;;;;;;;;;;;;;10030012;28;19923;-70
2023/07/12 01:00:37;;;;;;;;;;;;;;;;;;10025046;28;19978;-70
2023/07/12 01:05:35;;;;;;;;;;;;;;;;;;10041378;28;20543;-69
2023/07/12 01:10:31;;;;;;;;;;;;;;;;;;10035720;28;19927;-70
2023/07/12 01:15:29;;;;;;;;;;;;;;;;;;10035119;28;19922;-70
2023/07/12 01:20:25;;;;;;;;;;;;;;;;;;10045573;28;19926;-72
2023/07/12 01:25:23;;;;;;;;;;;;;;;;;;10045522;28;19931;-71
2023/07/12 01:30:22;;;;;;;;;;;;;;;;;;10052878;28;19926;-72
2023/07/12 01:35:20;;;;;;;;;;;;;;;;;;10040077;28;19931;-71
2023/07/12 01:40:16;;;;;;;;;;;;;;;;;;10033396;28;19926;-71
2023/07/12 01:45:13;;;;;;;;;;;;;;;;;;10050263;28;19985;-71
2023/07/12 01:50:14;;;;;;;;;;;;;;;;;;10039316;28;19934;-69
2023/07/12 01:55:13;;;;;;;;;;;;;;;;;;10051262;28;19952;-72
2023/07/12 02:00:10;;;;;;;;;;;;;;;;;;10047406;28;20048;-71
2023/07/12 02:05:09;;;;;;;;;;;;;;;;;;10043080;28;19962;-71
2023/07/12 02:10:05;;;;;;;;;;;;;;;;;;10046566;28;19968;-71
2023/07/12 02:15:02;;;;;;;;;;;;;;;;;;10046032;28;19927;-69
2023/07/12 02:19:59;;;;;;;;;;;;;;;;;;10040064;29;19956;-71
2023/07/12 02:25:02;;;;;;;;;;;;;;;;;;10024880;29;20480;-70
2023/07/12 02:29:59;;;;;;;;;;;;;;;;;;10032844;28;20906;-69
2023/07/12 02:34:55;;;;;;;;;;;;;;;;;;10040657;28;19926;-69
2023/07/12 02:39:56;;;;;;;;;;;;;;;;;;10038978;28;20499;-70
2023/07/12 02:44:53;;;;;;;;;;;;;;;;;;10032195;28;19970;-70
2023/07/12 02:49:55;;;;;;;;;;;;;;;;;;10044087;28;19934;-70
2023/07/12 02:54:52;;;;;;;;;;;;;;;;;;10044194;28;20305;-70
2023/07/12 02:59:49;;;;;;;;;;;;;;;;;;10041867;28;19982;-71
2023/07/12 03:04:46;;;;;;;;;;;;;;;;;;10037668;28;19923;-70
2023/07/12 03:09:43;;;;;;;;;;;;;;;;;;10046258;28;19929;-70
2023/07/12 03:14:40;;;;;;;;;;;;;;;;;;10048406;28;20360;-71
2023/07/12 03:19:37;;;;;;;;;;;;;;;;;;10035880;28;19927;-70
2023/07/12 03:24:34;;;;;;;;;;;;;;;;;;10039576;28;19931;-69
2023/07/12 03:29:33;;;;;;;;;;;;;;;;;;10032373;28;20013;-69
2023/07/12 03:37:38;;;;;;;13.70;12.70;;;;;;;;;;10390099;27;20602;-71
2023/07/12 03:42:35;;;;;;;12.57;11.55;;;;;;;;;;10349623;27;20048;-72
2023/07/12 03:47:32;;;;;;;13.13;11.85;;;;;;;;;;10314814;27;20119;-71
2023/07/12 03:52:31;;;;;;;12.75;11.82;;;;;;;;;;10334127;28;20032;-72
2023/07/12 03:57:41;;;;;;;13.93;12.13;;;;;;;;;;10346863;27;20031;-72
2023/07/12 04:02:41;;;;;;;12.35;11.45;;;;;;;;;;10337012;27;20052;-72
2023/07/12 04:07:38;;;;;;;12.43;11.43;;;;;;;;;;10345852;27;20044;-72
2023/07/12 04:12:35;;;;;;;12.23;11.30;;;;;;;;;;10339516;27;20093;-71
2023/07/12 04:17:33;;;;;;;12.45;11.35;;;;;;;;;;10347874;27;21238;-72
2023/07/12 04:22:32;;;;;;;12.18;11.18;;;;;;;;;;10346945;28;20047;-72
2023/07/12 04:27:30;;;;;;;11.90;11.07;;;;;;;;;;10335222;27;20132;-71
2023/07/12 04:32:27;;;;;;;12.98;12.07;;;;;;;;;;10350640;28;20048;-71
2023/07/12 04:37:27;;;;;;;13.32;12.35;;;;;;;;;;10332371;27;20045;-71
2023/07/12 04:42:31;;;;;;;13.10;12.07;;;;;;;;;;10338704;28;20044;-71
2023/07/12 04:47:38;;;;;;;12.20;11.18;;;;;;;;;;10331595;28;20060;-72
2023/07/12 04:52:41;;;;;;;12.75;11.55;;;;;;;;;;10276555;28;20041;-71
2023/07/12 04:57:41;;;;;;;13.20;11.95;;;;;;;;;;10263407;28;20176;-71
2023/07/12 05:02:42;;;;;;;13.65;12.63;;;;;;;;;;10266671;28;20052;-71
2023/07/12 05:07:41;;;;;;;13.85;12.75;;;;;;;;;;10279589;28;20056;-71
2023/07/12 05:12:47;;;;;;;13.98;12.88;;;;;;;;;;10276074;28;20044;-71
2023/07/12 05:17:51;;;;;;;13.32;12.23;;;;;;;;;;10279531;28;20037;-71
2023/07/12 05:22:48;;;;;;;12.35;11.43;;;;;;;;;;10285421;28;20045;-71
2023/07/12 05:27:45;;;;;;;12.55;11.55;;;;;;;;;;10293255;27;20608;-72
2023/07/12 05:32:42;;;;;;;11.07;10.32;;;;;;;;;;10302973;28;20885;-71
2023/07/12 05:37:44;;;;;;;11.65;10.73;;;;;;;;;;10307520;28;20459;-71
2023/07/12 05:42:41;;;;;;;11.85;10.95;;;;;;;;;;10310957;28;21410;-71
2023/07/12 05:47:49;;;;;;;11.13;10.35;;;;;;;;;;10319114;28;20040;-71
2023/07/12 05:52:57;;;;;;;11.00;10.10;;;;;;;;;;10295859;28;20041;-71
2023/07/12 05:58:00;;;;;;;11.15;10.18;;;;;;;;;;10266011;28;20048;-71
2023/07/12 06:03:09;;;;;;;11.50;10.52;;;;;;;;;;10271470;28;20555;-71
2023/07/12 06:08:10;;;;;;;12.40;11.43;;;;;;;;;;10291538;28;20139;-71
2023/07/12 06:13:18;;;;;;;11.02;10.13;;;;;;;;;;10263604;28;20049;-71
2023/07/12 06:18:23;;;;;;;11.18;10.38;;;;;;;;;;10271688;28;20095;-72
2023/07/12 06:23:21;;;;;;;11.07;10.20;;;;;;;;;;10279139;28;20053;-71
2023/07/12 06:28:20;;;;;;;11.10;10.20;;;;;;;;;;10286080;28;20041;-71
2023/07/12 06:33:22;;;;;;;10.80;9.75;;;;;;;;;;10257351;28;20044;-71
2023/07/12 06:38:19;;;;;;;10.23;9.43;;;;;;;;;;10267382;28;20076;-71
2023/07/12 06:43:18;;;;;;;11.13;10.23;;;;;;;;;;10256949;28;20073;-70
2023/07/12 06:48:21;;;;;;;12.48;11.30;;;;;;;;;;10267590;28;20041;-71
2023/07/12 06:53:21;;;;;;;12.25;11.10;;;;;;;;;;10254816;28;20132;-70
2023/07/12 06:58:18;;;;;;;11.18;10.38;;;;;;;;;;10280265;28;20522;-70
2023/07/12 07:03:18;;;;;;;11.90;11.05;;;;;;;;;;10268025;28;20098;-71
2023/07/12 07:08:26;;;;;;;11.85;10.95;;;;;;;;;;10257057;28;20054;-71
2023/07/12 07:13:29;;;;;;;10.27;9.32;;;;;;;;;;10280712;28;20064;-71
2023/07/12 07:18:30;;;;;;;10.38;9.38;;;;;;;;;;10267134;28;20512;-72
2023/07/12 07:23:33;;;;;;;10.88;10.00;;;;;;;;;;10255740;28;20052;-71
2023/07/12 07:28:30;;;;;;;10.10;9.18;;;;;;;;;;10253452;28;20041;-71
2023/07/12 07:33:29;;;;;;;11.57;10.48;;;;;;;;;;10259339;28;20049;-71
2023/07/12 07:38:29;;;;;;;;;;;;;;;;;;10258563;28;20160;-72
2023/07/12 07:43:32;;;;;;;8.55;7.70;;;;;;;;;;10264692;28;20286;-72
2023/07/12 07:48:29;;;;;;;9.95;8.02;;;;;;;;;;10258358;28;20041;-72
2023/07/12 07:53:31;;;;;;;9.88;8.85;;;;;;;;;;10266270;28;20507;-71
2023/07/12 07:58:30;;;;;;;8.95;8.13;;;;;;;;;;10273208;28;20083;-72
2023/07/12 08:03:30;;;;;;;9.10;8.25;;;;;;;;;;10261064;28;20507;-71
2023/07/12 08:08:28;;;;;;;9.13;8.40;;;;;;;;;;10266201;28;20138;-73
2023/07/12 08:13:25;;;;;;;8.50;7.72;;;;;;;;;;10263040;28;20083;-72
2023/07/12 08:18:23;;;;;;;13.68;9.40;;;;;;;;;;10265782;28;20091;-72
2023/07/12 08:23:29;;;;;;;8.73;7.93;;;;;;;;;;10271867;28;20116;-72
2023/07/12 08:28:27;;;;;;;8.48;7.85;;;;;;;;;;10273291;28;20136;-72
2023/07/12 08:33:26;;;;;;;8.38;7.57;;;;;;;;;;10266871;28;20068;-71
2023/07/12 08:38:24;;;;;;;9.15;8.35;;;;;;;;;;10292584;28;20037;-72
2023/07/12 08:43:24;;;;;;;11.20;8.15;;;;;;;;;;10272835;28;20045;-71
2023/07/12 08:48:29;;;;;;;10.95;8.18;;;;;;;;;;10276162;28;20052;-71
2023/07/12 08:53:29;;;;;;;8.50;7.80;;;;;;;;;;10260004;28;20051;-71
2023/07/12 08:58:50;;;;;;;11.10;8.90;;;;;;;;;;10259515;28;20457;-70
2023/07/12 09:03:50;;;;;;;8.43;7.68;;;;;;;;;;10272225;28;20559;-70
2023/07/12 09:08:50;;;;;;;9.20;8.30;;;;;;;;;;10283521;28;20037;-70
2023/07/12 09:13:51;;;;;;;10.95;7.95;;;;;;;;;;10275932;28;20139;-71
2023/07/12 09:18:58;;;;;;;9.70;8.55;;;;;;;;;;10275684;28;20060;-71
2023/07/12 09:24:24;;;;;;;12.48;9.00;;;;;;;;;;10266811;28;20041;-71
2023/07/12 09:29:24;;;;;;;8.88;8.07;;;;;;;;;;10274157;28;20123;-71
2023/07/12 09:34:27;;;;;;;9.40;8.60;;;;;;;;;;10264402;28;20065;-71
2023/07/12 09:39:29;;;;;;;9.82;8.43;;;;;;;;;;10281574;28;20114;-70
2023/07/12 09:44:30;;;;;;;;;;;;;;;;;;10270486;28;20048;-71
2023/07/12 09:49:39;;;;;;;11.50;7.65;;;;;;;;;;10274917;28;19920;-70
2023/07/12 09:54:39;;;;;;;9.70;8.45;;;;;;;;;;10253058;28;20658;-71
2023/07/12 09:59:53;;;;;;;9.50;8.48;;;;;;;;;;10283655;28;20041;-71
2023/07/12 10:04:55;;;;;;;9.73;8.38;;;;;;;;;;10256173;28;20053;-70
2023/07/12 10:09:55;;;;;;;10.75;8.05;;;;;;;;;;10257491;28;20048;-71
2023/07/12 10:14:54;;;;;;;9.15;8.23;;;;;;;;;;10250205;28;20044;-71
2023/07/12 10:19:54;;;;;;;9.50;7.90;;;;;;;;;;10263783;28;20095;-69
2023/07/12 10:24:54;;;;;;;9.93;8.20;;;;;;;;;;10268726;28;20466;-70
2023/07/12 10:29:53;;;;;;;11.55;8.35;;;;;;;;;;10259921;28;20493;-69
2023/07/12 10:34:58;;;;;;;9.90;8.93;;;;;;;;;;10264365;28;20061;-69
2023/07/12 10:39:55;;;;;;;9.90;8.70;;;;;;;;;;10262267;28;20097;-70
2023/07/12 10:44:59;;;;;;;8.80;7.85;;;;;;;;;;10269032;28;20044;-71
2023/07/12 10:50:04;;;;;;;11.10;8.60;;;;;;;;;;10271355;28;20510;-70
2023/07/12 10:55:06;;;;;;;10.15;8.77;;;;;;;;;;10258613;28;20044;-70
2023/07/12 11:00:12;;;;;;;11.57;8.80;;;;;;;;;;10262059;28;20071;-69
2023/07/12 11:05:28;;;;;;;10.82;8.25;;;;;;;;;;10271828;28;20077;-70
2023/07/12 11:10:36;;;;;;;8.65;7.75;;;;;;;;;;10276489;28;20040;-69
2023/07/12 11:15:47;;;;;;;10.45;7.85;;;;;;;;;;10258819;28;20424;-70
2023/07/12 11:21:07;;;;;;;8.52;7.57;;;;;;;;;;10293707;28;20082;-71
2023/07/12 11:26:22;;;;;;;9.73;8.60;;;;;;;;;;10274259;28;20533;-69
2023/07/12 11:31:30;;;;;;;8.98;8.07;;;;;;;;;;10264070;28;20071;-71
2023/07/12 11:36:37;;;;;;;9.85;8.90;;;;;;;;;;10252968;28;20061;-70
2023/07/12 11:41:39;;;;;;;9.73;8.82;;;;;;;;;;10262648;28;20045;-71
2023/07/12 11:46:37;;;;;;;9.38;8.02;;;;;;;;;;10279257;28;20155;-71
2023/07/12 11:51:43;;;;;;;11.48;8.65;;;;;;;;;;10271112;28;20076;-71
2023/07/12 11:56:40;;;;;;;10.13;8.52;;;;;;;;;;10268792;28;20074;-71
2023/07/12 12:01:37;;;;;;;11.52;9.52;;;;;;;;;;10259290;28;20045;-70
2023/07/12 12:06:37;;;;;;;13.50;8.43;;;;;;;;;;10288432;28;20123;-70
2023/07/12 12:11:39;;;;;;;11.57;9.00;;;;;;;;;;10265206;28;20564;-71
2023/07/12 12:16:39;;;;;;;10.40;8.85;;;;;;;;;;10271504;28;20063;-70
2023/07/12 12:21:49;;;;;;;9.18;8.30;;;;;;;;;;10267728;28;20057;-70
2023/07/12 12:26:51;;;;;;;14.02;8.32;;;;;;;;;;10283993;28;20045;-71
2023/07/12 12:31:53;;;;;;;10.48;8.32;;;;;;;;;;10289171;28;20060;-70
2023/07/12 12:37:00;;;;;;;8.30;7.60;;;;;;;;;;10291176;28;20076;-70
2023/07/12 12:41:59;;;;;;;9.80;8.50;;;;;;;;;;10295650;28;20050;-70
2023/07/12 12:47:01;;;;;;;11.48;7.95;;;;;;;;;;10279890;28;20049;-71
2023/07/12 12:52:22;;;;;;;8.73;7.95;;;;;;;;;;10278667;28;20457;-71
2023/07/12 12:57:24;;;;;;;8.90;8.00;;;;;;;;;;10290479;28;20128;-71
2023/07/12 13:02:27;;;;;;;8.07;7.38;;;;;;;;;;10286560;28;20139;-71
2023/07/12 13:07:36;;;;;;;9.30;7.78;;;;;;;;;;10292974;28;20056;-70
2023/07/12 13:13:00;;;;;;;7.35;6.72;;;;;;;;;;10283639;28;20056;-71
2023/07/12 13:18:04;;;;;;;8.10;7.32;;;;;;;;;;10288828;28;20041;-71
2023/07/12 13:23:29;;;;;;;9.75;8.85;;;;;;;;;;10280593;28;20049;-71
2023/07/12 13:28:31;;;;;;;9.15;8.25;;;;;;;;;;10304688;28;20048;-71
2023/07/12 13:33:34;;;;;;;11.65;10.40;;;;;;;;;;10280072;28;20045;-71
2023/07/12 13:38:32;;;;;;;9.85;9.05;;;;;;;;;;10285472;28;20147;-72
2023/07/12 13:43:48;;;;;;;11.02;9.45;;;;;;;;;;10271893;28;20499;-71
2023/07/12 13:48:50;;;;;;;10.77;9.85;;;;;;;;;;10302004;28;20079;-71
2023/07/12 13:53:58;;;;;;;11.13;10.23;;;;;;;;;;10281194;28;20045;-71
2023/07/12 13:59:01;;;;;;;11.20;10.27;;;;;;;;;;10285905;28;20743;-71
2023/07/12 14:04:14;;;;;;;11.98;10.98;;;;;;;;;;10284431;28;20419;-71
2023/07/12 14:09:14;;;;;;;11.60;10.60;;;;;;;;;;10279522;28;20090;-71
2023/07/12 14:14:12;;;;;;;11.95;10.85;;;;;;;;;;10280948;28;20067;-71
2023/07/12 14:19:10;;;;;;;10.95;9.85;;;;;;;;;;10282030;28;20033;-70
2023/07/12 14:24:11;;;;;;;7.32;6.63;;;;;;;;;;10289847;28;20062;-71
2023/07/12 14:29:11;;;;;;;;;;;;;;;;;;10285916;28;20041;-71
2023/07/12 14:34:30;;;;;;;8.50;7.70;;;;;;;;;;10274387;28;19921;-71
2023/07/12 14:39:32;;;;;;;8.60;7.80;;;;;;;;;;10281859;28;20045;-72
2023/07/12 14:44:32;;;;;;;8.20;6.82;;;;;;;;;;10272774;28;20041;-71
2023/07/12 14:49:32;;;;;;;8.15;6.85;;;;;;;;;;10259774;28;20647;-72
2023/07/12 14:54:31;;;;;;;8.73;7.68;;;;;;;;;;10257120;28;20107;-71
2023/07/12 14:59:40;;;;;;;8.00;7.20;;;;;;;;;;10263111;28;20048;-71
2023/07/12 15:04:40;;;;;;;8.85;7.65;;;;;;;;;;10252284;28;20046;-70
2023/07/12 15:09:51;;;;;;;8.70;7.90;;;;;;;;;;10282922;28;20063;-70
2023/07/12 15:14:51;;;;;;;9.30;8.50;;;;;;;;;;10274340;28;20513;-72
2023/07/12 15:19:48;;;;;;;9.15;8.27;;;;;;;;;;10276737;28;20124;-71
2023/07/12 15:24:48;;;;;;;16.25;12.00;;;;;;;;;;10275025;28;20040;-71
2023/07/12 15:29:44;;;;;;;11.65;10.40;;;;;;;;;;10292606;28;20049;-71
2023/07/12 15:34:42;;;;;;;12.07;10.98;;;;;;;;;;10270195;28;20044;-70
2023/07/12 15:39:40;;;;;;;10.15;9.35;;;;;;;;;;10276162;28;20136;-73
2023/07/12 15:44:37;;;;;;;9.93;8.98;;;;;;;;;;10265612;28;20136;-71
2023/07/12 15:49:39;;;;;;;10.75;9.57;;;;;;;;;;10261803;28;20045;-71
2023/07/12 15:54:38;;;;;;;9.95;9.00;;;;;;;;;;10258056;28;20037;-71
2023/07/12 15:59:40;;;;;;;11.40;10.38;;;;;;;;;;10268999;28;20099;-71
2023/07/12 16:04:48;;;;;;;11.75;10.70;;;;;;;;;;10278749;28;20533;-72
2023/07/12 16:09:54;;;;;;;10.00;9.00;;;;;;;;;;10258213;28;20041;-72
2023/07/12 16:14:56;;;;;;;9.55;8.75;;;;;;;;;;10270844;28;20048;-72
2023/07/12 16:20:09;;;;;;;9.70;8.80;;;;;;;;;;10257466;28;20417;-71
2023/07/12 16:25:16;;;;;;;9.95;8.98;;;;;;;;;;10262662;28;20507;-72
2023/07/12 16:30:19;;;;;;;9.52;8.48;;;;;;;;;;10268323;28;20148;-73
2023/07/12 16:35:21;;;;;;;10.63;8.88;;;;;;;;;;10264420;28;20102;-73
2023/07/12 16:40:37;;;;;;;12.48;9.38;;;;;;;;;;10281953;28;20043;-74
2023/07/12 16:45:36;;;;;;;8.77;7.88;;;;;;;;;;10262090;28;20052;-72
2023/07/12 16:50:41;;;;;;;9.45;8.65;;;;;;;;;;10264430;28;20045;-74
2023/07/12 16:55:40;;;;;;;9.63;8.73;;;;;;;;;;10260773;28;20064;-74
2023/07/12 17:00:48;;;;;;;10.55;9.30;;;;;;;;;;10252445;28;20063;-74
2023/07/12 17:05:47;;;;;;;10.80;9.77;;;;;;;;;;10257406;28;20049;-74
2023/07/12 17:10:45;;;;;;;10.43;9.52;;;;;;;;;;10278581;28;20063;-74
2023/07/12 17:15:42;;;;;;;13.35;9.73;;;;;;;;;;10261329;28;20040;-73
2023/07/12 17:20:42;;;;;;;9.57;8.63;;;;;;;;;;10259585;28;20049;-74
2023/07/12 17:25:39;;;;;;;8.02;7.22;;;;;;;;;;10272218;28;20067;-74
2023/07/12 17:30:51;;;;;;;8.95;8.15;;;;;;;;;;10268659;28;20045;-74
2023/07/12 17:35:51;;;;;;;8.85;8.07;;;;;;;;;;10305833;28;20057;-74
2023/07/12 17:40:58;;;;;;;10.32;9.32;;;;;;;;;;10264387;28;20126;-74
2023/07/12 17:45:58;;;;;;;10.40;7.90;;;;;;;;;;10261486;28;20099;-74
2023/07/12 17:50:59;;;;;;;10.00;8.63;;;;;;;;;;10306642;28;20511;-75
2023/07/12 17:56:02;;;;;;;8.32;7.53;;;;;;;;;;10270508;28;20059;-74
2023/07/12 18:01:06;;;;;;;9.23;7.90;;;;;;;;;;10269788;28;20049;-72
2023/07/12 18:06:08;;;;;;;9.05;8.13;;;;;;;;;;10281150;28;20051;-72
2023/07/12 18:11:15;;;;;;;9.55;8.55;;;;;;;;;;10276202;28;20398;-73
2023/07/12 18:16:16;;;;;;;11.00;8.40;;;;;;;;;;10252266;28;20049;-73
2023/07/12 18:21:27;;;;;;;10.98;9.75;;;;;;;;;;10265938;28;20493;-73
2023/07/12 18:26:25;;;;;;;8.98;8.10;;;;;;;;;;10267502;28;20069;-74
2023/07/12 18:31:37;;;;;;;8.10;7.30;;;;;;;;;;10264909;28;20044;-72
2023/07/12 18:36:34;;;;;;;9.07;7.90;;;;;;;;;;10255101;28;20042;-72
2023/07/12 18:41:37;;;;;;;8.77;7.88;;;;;;;;;;10263674;28;20049;-73
2023/07/12 18:46:44;;;;;;;9.10;8.15;;;;;;;;;;10266936;28;20049;-73
2023/07/12 18:51:50;;;;;;;9.57;7.70;;;;;;;;;;10268143;28;20049;-72
2023/07/12 18:56:53;;;;;;;9.07;8.27;;;;;;;;;;10264269;28;20065;-72
2023/07/12 19:01:51;;;;;;;10.55;8.40;;;;;;;;;;10276730;28;20571;-72
2023/07/12 19:06:50;;;;;;;9.27;8.38;;;;;;;;;;10258723;28;20127;-73
2023/07/12 19:11:49;;;;;;;9.00;7.90;;;;;;;;;;10267947;28;20093;-72
2023/07/12 19:16:47;;;;;;;9.55;7.43;;;;;;;;;;10270655;28;20099;-72
2023/07/12 19:21:51;;;;;;;9.55;8.13;;;;;;;;;;10264837;28;20079;-72
2023/07/12 19:26:50;;;;;;;8.98;8.07;;;;;;;;;;10267684;28;20052;-72
2023/07/12 19:31:50;;;;;;;;;;;;;;;;;;10269104;28;20124;-72
2023/07/12 19:36:56;;;;;;;8.63;7.83;;;;;;;;;;10272772;28;20290;-72
2023/07/12 19:42:10;;;;;;;9.30;7.13;;;;;;;;;;10267794;28;20088;-73
2023/07/12 19:47:12;;;;;;;7.75;6.90;;;;;;;;;;10290169;28;20051;-73
2023/07/12 19:52:13;;;;;;;7.63;6.93;;;;;;;;;;10256240;28;20120;-72
2023/07/12 19:57:16;;;;;;;9.15;8.25;;;;;;;;;;10277844;28;20042;-72
2023/07/12 20:02:20;;;;;;;10.40;8.40;;;;;;;;;;10268093;28;20503;-73
2023/07/12 20:07:20;;;;;;;9.13;6.80;;;;;;;;;;10259170;28;21255;-73
2023/07/12 20:12:29;;;;;;;8.00;7.22;;;;;;;;;;10272818;28;20835;-72
2023/07/12 20:17:26;;;;;;;7.22;6.55;;;;;;;;;;10251924;28;20134;-72
2023/07/12 20:22:23;;;;;;;11.70;8.10;;;;;;;;;;10304288;28;20048;-72
2023/07/12 20:27:21;;;;;;;11.43;7.70;;;;;;;;;;10265516;28;20040;-72
2023/07/12 20:32:18;;;;;;;7.88;7.13;;;;;;;;;;10276419;28;20040;-71
2023/07/12 20:37:18;;;;;;;7.32;6.63;;;;;;;;;;10303202;28;20042;-71
2023/07/12 20:42:27;;;;;;;8.65;7.93;;;;;;;;;;10270010;28;20570;-71
2023/07/12 20:47:27;;;;;;;9.40;8.50;;;;;;;;;;10267125;28;20041;-71
2023/07/12 20:52:32;;;;;;;9.18;8.27;;;;;;;;;;10272100;28;20069;-71
2023/07/12 20:57:31;;;;;;;;;;;;;;;;;;10272344;28;20151;-71
2023/07/12 21:02:34;;;;;;;8.98;8.23;;;;;;;;;;10269277;28;19929;-71
2023/07/12 21:07:35;;;;;;;7.07;6.47;;;;;;;;;;10271659;28;20060;-71
2023/07/12 21:12:35;;;;;;;7.80;7.10;;;;;;;;;;10272750;28;20403;-72
2023/07/12 21:17:32;;;;;;;8.82;7.78;;;;;;;;;;10266405;28;20072;-71
2023/07/12 21:22:29;;;;;;;8.23;7.53;;;;;;;;;;10270181;28;20056;-70
2023/07/12 21:27:33;;;;;;;8.80;8.05;;;;;;;;;;10270755;28;20048;-70
2023/07/12 21:32:32;;;;;;;;;;;;;;;;;;10282591;28;20518;-70
2023/07/12 21:37:29;;;;;;;9.63;7.93;;;;;;;;;;10277837;28;20530;-69
2023/07/12 21:42:35;;;;;;;8.05;7.25;;;;;;;;;;10276994;28;20044;-72
2023/07/12 21:47:32;;;;;;;9.27;8.32;;;;;;;;;;10274460;28;20048;-72
2023/07/12 21:52:29;;;;;;;9.27;8.55;;;;;;;;;;10283925;28;20066;-71
2023/07/12 21:57:32;;;;;;;9.82;8.93;;;;;;;;;;10280303;28;20561;-71
2023/07/12 22:02:37;;;;;;;9.23;8.00;;;;;;;;;;10269492;28;20441;-73
2023/07/12 22:07:39;;;;;;;11.10;7.95;;;;;;;;;;10272379;28;20392;-72
2023/07/12 22:12:42;;;;;;;10.57;8.32;;;;;;;;;;10277622;28;20052;-72
2023/07/12 22:17:41;;;;;;;12.60;9.25;;;;;;;;;;10271582;28;20053;-72
2023/07/12 22:22:42;;;;;;;12.68;9.40;;;;;;;;;;10271959;28;20041;-68
2023/07/12 22:27:44;;;;;;;10.65;9.30;;;;;;;;;;10283620;28;20041;-69
2023/07/12 22:32:41;;;;;;;8.93;8.03;;;;;;;;;;10271192;28;20037;-69
2023/07/12 22:37:39;;;;;;;9.05;8.15;;;;;;;;;;10259219;28;20037;-70
2023/07/12 22:42:36;;;;;;;10.07;8.63;;;;;;;;;;10273048;28;20071;-69
2023/07/12 22:47:32;;;;;;;8.15;7.45;;;;;;;;;;10268955;28;20040;-69
2023/07/12 22:52:30;;;;;;;9.23;8.43;;;;;;;;;;10274923;28;20068;-70
2023/07/12 22:57:30;;;;;;;8.25;7.55;;;;;;;;;;10279651;28;20045;-70
2023/07/12 23:02:32;;;;;;;8.45;7.72;;;;;;;;;;10281388;28;20554;-70
2023/07/12 23:07:30;;;;;;;9.05;8.15;;;;;;;;;;10265349;28;20044;-69
2023/07/12 23:12:32;;;;;;;8.73;7.60;;;;;;;;;;10277096;28;20063;-70
2023/07/12 23:17:31;;;;;;;;;;;;;;;;;;10268715;28;20117;-70
2023/07/12 23:22:35;;;;;;;10.48;8.30;;;;;;;;;;10278134;28;20019;-70
2023/07/12 23:27:34;;;;;;;9.13;8.20;;;;;;;;;;10276762;28;20421;-69
2023/07/12 23:32:34;;;;;;;8.63;7.75;;;;;;;;;;10274389;28;20048;-69
2023/07/12 23:37:31;;;;;;;9.77;8.98;;;;;;;;;;10276480;28;20094;-70
2023/07/12 23:42:41;;;;;;;10.27;9.27;;;;;;;;;;10268104;28;20041;-72
2023/07/12 23:47:41;;;;;;;9.73;8.87;;;;;;;;;;10274528;28;20045;-72
2023/07/12 23:52:38;;;;;;;9.60;8.75;;;;;;;;;;10288541;28;20041;-69
2023/07/12 23:57:34;;;;;;;9.10;8.30;;;;;;;;;;10275954;28;20469;-69
